createdAt,value
2023-03-26T00:01:15.576Z,1.53
2023-03-26T00:03:45.081Z,1.30
2023-03-26T00:06:14.539Z,1.30
2023-03-26T00:08:44.891Z,1.00
2023-03-26T00:11:13.498Z,1.50
2023-03-26T00:13:41.487Z,1.20
2023-03-26T00:16:08.480Z,1.10
2023-03-26T00:18:35.319Z,1.30
2023-03-26T00:21:04.739Z,1.30
2023-03-26T00:23:34.045Z,1.10
2023-03-26T00:26:02.992Z,1.30
2023-03-26T00:28:30.264Z,1.20
2023-03-26T00:31:02.424Z,1.57
2023-03-26T00:33:29.700Z,1.60
2023-03-26T00:35:58.971Z,1.37
2023-03-26T00:38:27.207Z,1.73
2023-03-26T00:40:55.113Z,1.30
2023-03-26T00:43:23.799Z,1.67
2023-03-26T00:45:55.394Z,1.23
2023-03-26T00:48:34.298Z,1.30
2023-03-26T00:51:09.957Z,1.60
2023-03-26T00:53:38.848Z,1.50
2023-03-26T00:56:06.710Z,1.40
2023-03-26T00:58:34.015Z,1.53
2023-03-26T01:01:06.723Z,1.33
2023-03-26T01:03:35.950Z,1.63
2023-03-26T01:06:08.037Z,1.50
2023-03-26T01:08:47.391Z,1.43
2023-03-26T01:11:18.534Z,1.40
2023-03-26T01:13:49.791Z,1.40
2023-03-26T01:16:49.940Z,1.30
2023-03-26T01:19:39.533Z,1.77
2023-03-26T01:22:12.118Z,1.60
2023-03-26T01:24:40.510Z,1.33
2023-03-26T01:27:29.211Z,1.60
2023-03-26T01:30:27.459Z,1.63
2023-03-26T01:33:14.340Z,1.40
2023-03-26T01:36:05.570Z,1.77
2023-03-26T01:38:48.169Z,1.47
2023-03-26T01:41:58.774Z,1.70
2023-03-26T01:44:44.810Z,1.40
2023-03-26T01:47:13.228Z,1.43
2023-03-26T01:49:40.404Z,1.33
2023-03-26T01:52:14.966Z,1.63
2023-03-26T01:54:42.321Z,1.93
2023-03-26T01:57:23.582Z,1.70
2023-03-26T02:00:18.076Z,2.90
2023-03-26T02:03:17.996Z,1.90
2023-03-26T02:06:03.095Z,2.50
2023-03-26T02:08:41.228Z,1.35
2023-03-26T02:11:13.125Z,1.90
2023-03-26T02:13:42.805Z,1.58
2023-03-26T02:16:16.788Z,1.77
2023-03-26T02:18:46.096Z,1.50
2023-03-26T02:21:30.519Z,1.63
2023-03-26T02:24:03.019Z,1.50
2023-03-26T02:26:33.222Z,1.60
2023-03-26T02:29:01.680Z,1.60
2023-03-26T02:31:30.049Z,1.88
2023-03-26T02:33:57.302Z,1.60
2023-03-26T02:36:27.368Z,1.73
2023-03-26T02:38:55.714Z,2.00
2023-03-26T02:41:22.503Z,2.10
2023-03-26T02:43:49.466Z,2.40
2023-03-26T02:46:16.214Z,2.60
2023-03-26T02:48:43.991Z,3.67
2023-03-26T02:51:10.916Z,3.50
2023-03-26T02:53:39.521Z,3.40
2023-03-26T02:56:06.886Z,3.10
2023-03-26T02:58:33.735Z,2.80
2023-03-26T03:01:03.003Z,2.25
2023-03-26T03:03:30.048Z,2.17
2023-03-26T03:05:57.602Z,1.70
2023-03-26T03:08:26.812Z,1.60
2023-03-26T03:11:08.619Z,2.00
2023-03-26T03:13:35.455Z,2.00
2023-03-26T03:16:02.277Z,2.20
2023-03-26T03:18:29.008Z,1.58
2023-03-26T03:20:56.035Z,2.10
2023-03-26T03:23:22.881Z,1.95
2023-03-26T03:25:52.726Z,2.38
2023-03-26T03:28:20.188Z,1.85
2023-03-26T03:30:47.078Z,2.47
2023-03-26T03:33:13.921Z,2.20
2023-03-26T03:35:41.647Z,2.50
2023-03-26T03:38:08.563Z,2.60
2023-03-26T03:40:35.291Z,2.67
2023-03-26T03:43:02.041Z,2.47
2023-03-26T03:45:28.768Z,3.30
2023-03-26T03:47:55.772Z,2.95
2023-03-26T03:50:22.560Z,3.63
2023-03-26T03:52:49.281Z,3.28
2023-03-26T03:55:16.122Z,3.17
2023-03-26T03:57:42.787Z,3.83
2023-03-26T04:00:11.791Z,3.45
2023-03-26T04:02:39.061Z,4.20
2023-03-26T04:05:06.439Z,3.13
2023-03-26T04:07:33.324Z,3.90
2023-03-26T04:10:02.902Z,3.95
2023-03-26T04:12:30.938Z,3.55
2023-03-26T04:14:58.589Z,3.95
2023-03-26T04:17:26.201Z,3.35
2023-03-26T04:19:54.862Z,3.25
2023-03-26T04:22:22.326Z,4.05
2023-03-26T04:24:49.851Z,4.57
2023-03-26T04:27:25.567Z,4.55
2023-03-26T04:29:52.277Z,4.85
2023-03-26T04:32:34.255Z,4.82
2023-03-26T04:35:03.989Z,4.88
2023-03-26T04:37:39.766Z,5.00
2023-03-26T04:40:15.383Z,5.40
2023-03-26T04:42:45.863Z,5.22
2023-03-26T04:45:17.861Z,4.80
2023-03-26T04:47:46.557Z,5.00
2023-03-26T04:50:13.716Z,4.93
2023-03-26T04:52:43.211Z,5.68
2023-03-26T04:55:42.286Z,5.80
2023-03-26T04:58:09.423Z,5.55
2023-03-26T05:00:36.261Z,6.57
2023-03-26T05:03:03.039Z,6.45
2023-03-26T05:05:30.034Z,5.72
2023-03-26T05:07:56.830Z,6.70
2023-03-26T05:10:24.204Z,6.20
2023-03-26T05:12:51.053Z,6.57
2023-03-26T05:15:17.881Z,6.10
2023-03-26T05:17:44.700Z,5.95
2023-03-26T05:20:17.311Z,6.57
2023-03-26T05:22:44.974Z,6.93
2023-03-26T05:25:12.033Z,6.72
2023-03-26T05:27:39.307Z,5.55
2023-03-26T05:30:07.357Z,5.47
2023-03-26T05:32:34.676Z,5.55
2023-03-26T05:35:01.997Z,4.90
2023-03-26T05:37:33.996Z,5.50
2023-03-26T05:40:01.267Z,5.15
2023-03-26T05:42:28.083Z,4.95
2023-03-26T05:44:54.788Z,4.47
2023-03-26T05:47:21.476Z,5.60
2023-03-26T05:49:48.233Z,6.25
2023-03-26T05:52:18.863Z,4.40
2023-03-26T05:54:45.783Z,4.93
2023-03-26T05:57:12.686Z,4.15
2023-03-26T05:59:39.438Z,5.03
2023-03-26T06:02:06.403Z,4.70
2023-03-26T06:04:33.347Z,4.80
2023-03-26T06:07:02.015Z,4.00
2023-03-26T06:09:29.540Z,3.20
2023-03-26T06:11:56.465Z,4.78
2023-03-26T06:14:23.204Z,3.28
2023-03-26T06:16:49.890Z,3.28
2023-03-26T06:19:17.336Z,3.58
2023-03-26T06:21:44.059Z,3.15
2023-03-26T06:24:11.069Z,2.45
2023-03-26T06:26:37.873Z,2.85
2023-03-26T06:29:04.592Z,3.30
2023-03-26T06:31:31.427Z,2.93
2023-03-26T06:33:58.124Z,4.15
2023-03-26T06:36:24.900Z,5.90
2023-03-26T06:38:51.679Z,4.90
2023-03-26T06:41:18.515Z,4.87
2023-03-26T06:43:45.296Z,5.10
2023-03-26T06:46:12.390Z,5.23
2023-03-26T06:48:40.373Z,4.17
2023-03-26T06:51:07.328Z,5.00
2023-03-26T06:53:34.198Z,4.80
2023-03-26T06:56:01.202Z,4.63
2023-03-26T06:58:27.912Z,5.83
2023-03-26T07:00:55.729Z,5.20
2023-03-26T07:03:23.307Z,4.27
2023-03-26T07:05:50.084Z,5.30
2023-03-26T07:08:16.828Z,5.28
2023-03-26T07:10:43.681Z,5.00
2023-03-26T07:13:10.763Z,5.10
2023-03-26T07:15:37.570Z,5.50
2023-03-26T07:18:04.656Z,4.33
2023-03-26T07:20:31.803Z,5.00
2023-03-26T07:22:58.847Z,4.60
2023-03-26T07:25:26.033Z,5.00
2023-03-26T07:28:14.299Z,4.10
2023-03-26T07:31:15.056Z,3.70
2023-03-26T07:33:51.772Z,3.80
2023-03-26T07:36:36.080Z,3.03
2023-03-26T07:39:14.627Z,3.00
2023-03-26T07:41:57.343Z,3.40
2023-03-26T07:44:30.260Z,3.03
2023-03-26T07:47:00.609Z,3.30
2023-03-26T07:49:29.444Z,7.10
2023-03-26T07:51:56.504Z,5.10
2023-03-26T07:54:23.601Z,3.70
2023-03-26T07:57:04.872Z,4.03
2023-03-26T07:59:48.172Z,2.70
2023-03-26T08:02:36.967Z,5.10
2023-03-26T08:05:19.767Z,2.97
2023-03-26T08:08:05.663Z,3.40
2023-03-26T08:10:39.204Z,3.17
2023-03-26T08:13:27.050Z,2.90
2023-03-26T08:16:12.998Z,3.03
2023-03-26T08:18:56.110Z,4.80
2023-03-26T08:21:36.139Z,3.27
2023-03-26T08:24:26.651Z,3.77
2023-03-26T08:27:02.597Z,3.70
2023-03-26T08:29:38.424Z,4.33
2023-03-26T08:32:16.626Z,3.23
2023-03-26T08:34:43.511Z,3.53
2023-03-26T08:37:10.333Z,3.70
2023-03-26T08:39:38.886Z,2.90
2023-03-26T08:42:11.672Z,2.80
2023-03-26T08:44:47.670Z,2.90
2023-03-26T08:47:20.636Z,3.30
2023-03-26T08:50:31.682Z,2.93
2023-03-26T08:53:17.081Z,2.70
2023-03-26T08:55:57.201Z,3.53
2023-03-26T08:58:30.086Z,2.87
2023-03-26T09:01:34.434Z,2.90
2023-03-26T09:04:19.055Z,3.00
2023-03-26T09:07:26.134Z,3.13
2023-03-26T09:10:23.923Z,2.60
2023-03-26T09:12:50.627Z,2.87
2023-03-26T09:15:38.612Z,2.00
2023-03-26T09:18:14.266Z,2.90
2023-03-26T09:20:50.205Z,2.27
2023-03-26T09:24:01.415Z,2.90
2023-03-26T09:27:04.915Z,2.23
2023-03-26T09:29:56.766Z,2.87
2023-03-26T09:32:39.416Z,2.70
2023-03-26T09:35:13.806Z,3.00
2023-03-26T09:37:57.016Z,2.40
2023-03-26T09:40:59.317Z,3.30
2023-03-26T09:43:56.999Z,5.27
2023-03-26T09:46:32.479Z,3.57
2023-03-26T09:49:33.109Z,2.80
2023-03-26T09:52:31.983Z,3.07
2023-03-26T09:55:01.724Z,3.37
2023-03-26T09:57:58.469Z,3.83
2023-03-26T10:00:40.481Z,3.57
2023-03-26T10:03:07.178Z,3.50
2023-03-26T10:06:09.743Z,5.00
2023-03-26T10:08:51.294Z,4.97
2023-03-26T10:11:23.919Z,3.20
2023-03-26T10:14:24.599Z,4.80
2023-03-26T10:17:10.641Z,4.80
2023-03-26T10:19:48.579Z,3.67
2023-03-26T10:22:52.749Z,4.30
2023-03-26T10:25:29.192Z,3.97
2023-03-26T10:28:26.771Z,3.50
2023-03-26T10:31:17.002Z,3.33
2023-03-26T10:34:08.781Z,3.00
2023-03-26T10:37:05.450Z,2.73
2023-03-26T10:39:45.867Z,2.03
2023-03-26T10:42:40.771Z,2.20
2023-03-26T10:45:13.365Z,2.40
2023-03-26T10:48:17.686Z,3.47
2023-03-26T10:51:18.161Z,2.17
2023-03-26T10:54:08.119Z,2.20
2023-03-26T10:56:39.295Z,2.33
2023-03-26T10:59:12.208Z,2.10
2023-03-26T11:02:04.135Z,2.20
2023-03-26T11:04:57.290Z,2.00
2023-03-26T11:07:54.569Z,1.50
2023-03-26T11:10:36.880Z,1.37
2023-03-26T11:13:19.396Z,1.20
2023-03-26T11:15:54.921Z,1.10
2023-03-26T11:18:43.435Z,1.20
2023-03-26T11:21:30.657Z,1.40
2023-03-26T11:24:09.083Z,1.40
2023-03-26T11:26:55.925Z,1.27
2023-03-26T11:29:39.416Z,1.00
2023-03-26T11:32:10.940Z,1.20
2023-03-26T11:35:05.712Z,1.43
2023-03-26T11:37:37.651Z,1.10
2023-03-26T11:40:11.544Z,1.20
2023-03-26T11:42:38.697Z,1.20
2023-03-26T11:45:08.176Z,1.50
2023-03-26T11:47:44.658Z,1.40
2023-03-26T11:50:18.353Z,1.00
2023-03-26T11:52:46.846Z,1.10
2023-03-26T11:55:14.443Z,1.30
2023-03-26T11:57:46.303Z,1.10
2023-03-26T12:00:19.466Z,1.30
2023-03-26T12:02:48.307Z,1.10
2023-03-26T12:05:21.930Z,1.20
2023-03-26T12:07:57.170Z,1.47
2023-03-26T12:10:34.804Z,1.10
2023-03-26T12:13:32.317Z,1.30
2023-03-26T12:16:05.585Z,1.70
2023-03-26T12:18:32.693Z,2.23
2023-03-26T12:21:19.685Z,1.50
2023-03-26T12:24:32.062Z,1.00
2023-03-26T12:27:02.438Z,1.10
2023-03-26T12:29:34.383Z,1.30
2023-03-26T12:32:12.676Z,1.17
2023-03-26T12:34:40.488Z,1.00
2023-03-26T12:37:28.287Z,1.10
2023-03-26T12:40:15.135Z,1.13
2023-03-26T12:44:45.986Z,1.00
2023-03-26T12:45:42.350Z,1.10
2023-03-26T12:48:16.088Z,1.10
2023-03-26T12:51:22.987Z,1.23
2023-03-26T12:53:49.694Z,0.90
2023-03-26T12:56:43.157Z,0.90
2023-03-26T12:59:15.791Z,0.90
2023-03-26T13:02:01.194Z,1.00
2023-03-26T13:04:36.158Z,1.07
2023-03-26T13:07:31.032Z,1.03
2023-03-26T13:10:10.512Z,1.10
2023-03-26T13:13:15.310Z,0.97
2023-03-26T13:15:52.406Z,1.20
2023-03-26T13:19:07.164Z,0.90
2023-03-26T13:21:46.791Z,1.00
2023-03-26T13:24:52.323Z,1.07
2023-03-26T13:27:24.813Z,1.00
2023-03-26T13:30:27.121Z,1.07
2023-03-26T13:33:11.992Z,1.17
2023-03-26T13:36:19.231Z,1.00
2023-03-26T13:39:13.114Z,1.20
2023-03-26T13:42:07.215Z,1.13
2023-03-26T13:44:49.622Z,1.17
2023-03-26T13:47:19.328Z,1.10
2023-03-26T13:50:10.934Z,1.00
2023-03-26T13:52:47.241Z,1.30
2023-03-26T13:55:31.936Z,1.27
2023-03-26T13:58:14.449Z,0.97
2023-03-26T14:01:05.269Z,1.30
2023-03-26T14:03:43.227Z,1.40
2023-03-26T14:06:28.819Z,1.00
2023-03-26T14:09:06.621Z,1.33
2023-03-26T14:11:47.580Z,1.13
2023-03-26T14:14:38.277Z,1.17
2023-03-26T14:17:36.355Z,1.20
2023-03-26T14:20:09.440Z,1.13
2023-03-26T14:23:05.525Z,1.23
2023-03-26T14:25:55.973Z,1.20
2023-03-26T14:28:53.787Z,1.10
2023-03-26T14:31:41.777Z,1.37
2023-03-26T14:34:52.887Z,1.00
2023-03-26T14:37:34.877Z,1.47
2023-03-26T14:40:28.034Z,1.20
2023-03-26T14:43:09.846Z,1.40
2023-03-26T14:46:10.556Z,1.10
2023-03-26T14:49:02.811Z,1.40
2023-03-26T14:51:51.671Z,1.13
2023-03-26T14:54:22.761Z,1.00
2023-03-26T14:57:19.933Z,1.30
2023-03-26T14:59:55.668Z,1.47
2023-03-26T15:02:59.675Z,1.10
2023-03-26T15:05:57.424Z,1.00
2023-03-26T15:08:42.657Z,1.40
2023-03-26T15:11:40.080Z,1.73
2023-03-26T15:14:43.822Z,1.57
2023-03-26T15:17:19.763Z,1.40
2023-03-26T15:20:13.031Z,1.40
2023-03-26T15:23:17.378Z,1.20
2023-03-26T15:26:10.118Z,1.80
2023-03-26T15:29:03.999Z,1.20
2023-03-26T15:31:55.180Z,1.10
2023-03-26T15:34:54.742Z,2.00
2023-03-26T15:37:37.109Z,1.27
2023-03-26T15:40:27.892Z,1.00
2023-03-26T15:43:03.665Z,1.03
2023-03-26T15:45:37.935Z,1.10
2023-03-26T15:48:37.669Z,1.20
2023-03-26T15:51:15.421Z,1.20
2023-03-26T15:54:06.360Z,1.40
2023-03-26T15:56:44.471Z,1.23
2023-03-26T15:59:13.292Z,1.27
2023-03-26T16:02:12.120Z,1.27
2023-03-26T16:05:21.338Z,1.20
2023-03-26T16:08:14.706Z,1.40
2023-03-26T16:10:58.788Z,1.43
2023-03-26T16:13:36.811Z,1.60
2023-03-26T16:16:04.077Z,1.30
2023-03-26T16:18:43.946Z,1.27
2023-03-26T16:21:36.611Z,1.27
2023-03-26T16:24:03.424Z,1.40
2023-03-26T16:27:07.864Z,1.20
2023-03-26T16:30:00.380Z,1.43
2023-03-26T16:32:33.817Z,1.23
2023-03-26T16:35:25.416Z,1.33
2023-03-26T16:38:11.445Z,1.50
2023-03-26T16:40:54.934Z,1.20
2023-03-26T16:43:39.544Z,1.50
2023-03-26T16:46:46.632Z,1.40
2023-03-26T16:49:22.759Z,1.80
2023-03-26T16:52:13.416Z,1.40
2023-03-26T16:54:47.561Z,1.33
2023-03-26T16:58:03.479Z,1.30
2023-03-26T17:01:08.943Z,1.60
2023-03-26T17:03:43.685Z,1.30
2023-03-26T17:06:48.216Z,1.30
2023-03-26T17:09:23.465Z,1.57
2023-03-26T17:11:52.946Z,2.00
2023-03-26T17:14:34.069Z,1.33
2023-03-26T17:17:24.669Z,1.53
2023-03-26T17:20:18.779Z,1.47
2023-03-26T17:23:13.911Z,1.20
2023-03-26T17:25:53.766Z,2.20
2023-03-26T17:28:23.436Z,1.60
2023-03-26T17:31:20.120Z,1.30
2023-03-26T17:33:47.940Z,1.30
2023-03-26T17:36:18.834Z,1.30
2023-03-26T17:38:48.391Z,1.13
2023-03-26T17:41:55.448Z,1.87
2023-03-26T17:44:42.064Z,1.37
2023-03-26T17:47:35.737Z,1.40
2023-03-26T17:50:36.970Z,1.20
2023-03-26T17:53:17.736Z,1.40
2023-03-26T17:55:46.300Z,2.00
2023-03-26T17:58:23.979Z,1.17
2023-03-26T18:00:56.768Z,1.90
2023-03-26T18:03:31.107Z,1.87
2023-03-26T18:06:06.680Z,1.63
2023-03-26T18:08:47.550Z,1.50
2023-03-26T18:11:37.013Z,1.53
2023-03-26T18:14:36.068Z,1.13
2023-03-26T18:17:03.431Z,1.10
2023-03-26T18:19:45.521Z,1.07
2023-03-26T18:22:23.678Z,1.73
2023-03-26T18:24:51.784Z,1.20
2023-03-26T18:27:22.338Z,1.33
2023-03-26T18:30:01.887Z,1.40
2023-03-26T18:32:33.543Z,1.50
2023-03-26T18:35:24.028Z,1.70
2023-03-26T18:37:53.418Z,2.00
2023-03-26T18:40:24.485Z,1.50
2023-03-26T18:42:58.917Z,1.40
2023-03-26T18:45:25.672Z,1.70
2023-03-26T18:47:54.138Z,1.60
2023-03-26T18:50:29.961Z,0.87
2023-03-26T18:53:00.071Z,1.05
2023-03-26T18:55:28.354Z,6.03
2023-03-26T18:57:55.908Z,2.40
2023-03-26T19:00:25.586Z,1.93
2023-03-26T19:03:05.002Z,1.90
2023-03-26T19:05:36.509Z,2.43
2023-03-26T19:08:05.371Z,1.70
2023-03-26T19:10:33.255Z,1.33
2023-03-26T19:13:04.079Z,1.60
2023-03-26T19:15:34.127Z,1.40
2023-03-26T19:18:14.447Z,5.90
2023-03-26T19:20:44.607Z,1.67
2023-03-26T19:23:18.615Z,2.60
2023-03-26T19:25:54.978Z,1.63
2023-03-26T19:28:30.082Z,1.33
2023-03-26T19:31:19.300Z,1.43
2023-03-26T19:33:53.478Z,1.75
2023-03-26T19:36:24.499Z,1.33
2023-03-26T19:38:53.847Z,1.33
2023-03-26T19:41:25.056Z,1.33
2023-03-26T19:43:55.861Z,1.40
2023-03-26T19:46:23.601Z,1.17
2023-03-26T19:48:56.618Z,1.20
2023-03-26T19:51:36.082Z,1.10
2023-03-26T19:54:13.924Z,1.27
2023-03-26T19:56:40.687Z,2.10
2023-03-26T19:59:07.744Z,1.60
2023-03-26T20:01:34.640Z,1.67
2023-03-26T20:04:04.791Z,1.47
2023-03-26T20:06:42.676Z,1.17
2023-03-26T20:09:12.164Z,1.00
2023-03-26T20:11:39.675Z,1.17
2023-03-26T20:14:15.646Z,1.50
2023-03-26T20:16:45.361Z,1.70
2023-03-26T20:19:14.222Z,1.30
2023-03-26T20:21:41.679Z,1.60
2023-03-26T20:24:15.036Z,1.20
2023-03-26T20:26:42.498Z,2.10
2023-03-26T20:29:10.268Z,1.87
2023-03-26T20:31:38.270Z,1.27
2023-03-26T20:34:14.343Z,1.80
2023-03-26T20:36:41.084Z,1.20
2023-03-26T20:39:08.203Z,1.17
2023-03-26T20:41:38.072Z,1.60
2023-03-26T20:44:13.691Z,1.27
2023-03-26T20:46:40.676Z,1.45
2023-03-26T20:49:07.401Z,1.50
2023-03-26T20:51:38.107Z,1.20
2023-03-26T20:54:25.613Z,1.20
2023-03-26T20:56:54.247Z,1.70
2023-03-26T20:59:27.081Z,1.00
2023-03-26T21:01:56.626Z,1.00
2023-03-26T21:04:24.677Z,0.90
2023-03-26T21:06:55.116Z,1.00
2023-03-26T21:09:25.297Z,1.00
2023-03-26T21:12:05.000Z,1.10
2023-03-26T21:14:41.347Z,1.73
2023-03-26T21:17:18.558Z,1.07
2023-03-26T21:19:46.160Z,1.70
2023-03-26T21:22:19.044Z,1.10
2023-03-26T21:24:49.505Z,1.00
2023-03-26T21:27:25.196Z,1.27
2023-03-26T21:29:56.253Z,1.00
2023-03-26T21:32:24.201Z,1.20
2023-03-26T21:34:58.594Z,1.10
2023-03-26T21:37:26.555Z,1.10
2023-03-26T21:39:53.519Z,1.00
2023-03-26T21:42:20.669Z,1.00
2023-03-26T21:44:47.830Z,0.90
2023-03-26T21:47:14.924Z,1.00
2023-03-26T21:49:41.944Z,1.20
2023-03-26T21:52:14.577Z,1.30
2023-03-26T21:54:43.242Z,1.20
2023-03-26T21:57:17.650Z,0.80
2023-03-26T22:00:15.128Z,1.00
2023-03-26T22:03:04.070Z,0.90
2023-03-26T22:05:39.603Z,1.10
2023-03-26T22:08:08.077Z,1.00
2023-03-26T22:10:34.779Z,0.80
2023-03-26T22:13:01.544Z,0.90
2023-03-26T22:15:31.183Z,1.20
2023-03-26T22:18:04.770Z,0.90
2023-03-26T22:20:31.742Z,1.20
2023-03-26T22:22:59.705Z,1.00
2023-03-26T22:25:26.514Z,1.00
2023-03-26T22:27:53.885Z,0.90
2023-03-26T22:30:21.063Z,1.30
2023-03-26T22:32:48.710Z,1.00
2023-03-26T22:35:15.830Z,1.20
2023-03-26T22:37:42.952Z,1.10
2023-03-26T22:40:12.944Z,1.10
2023-03-26T22:42:40.522Z,1.10
2023-03-26T22:45:09.313Z,1.10
2023-03-26T22:47:36.641Z,1.00
2023-03-26T22:50:04.985Z,1.10
2023-03-26T22:52:31.773Z,0.97
2023-03-26T22:54:58.681Z,1.10
2023-03-26T22:57:25.851Z,1.10
2023-03-26T22:59:53.050Z,1.10
2023-03-26T23:02:20.115Z,1.10
2023-03-26T23:04:48.674Z,1.20
2023-03-26T23:07:15.593Z,1.10
2023-03-26T23:09:42.356Z,1.00
2023-03-26T23:12:09.163Z,1.60
2023-03-26T23:14:36.271Z,1.20
2023-03-26T23:17:03.655Z,0.90
2023-03-26T23:19:30.600Z,1.10
2023-03-26T23:21:57.481Z,1.30
2023-03-26T23:24:26.374Z,1.10
2023-03-26T23:26:53.359Z,1.00
2023-03-26T23:29:20.282Z,1.10
2023-03-26T23:31:47.346Z,1.00
2023-03-26T23:34:15.268Z,0.90
2023-03-26T23:36:42.307Z,1.00
2023-03-26T23:39:09.342Z,1.08
2023-03-26T23:41:36.743Z,0.90
2023-03-26T23:44:04.020Z,0.90
2023-03-26T23:46:33.704Z,0.98
2023-03-26T23:49:03.829Z,1.10
2023-03-26T23:51:32.048Z,0.80
2023-03-26T23:53:59.676Z,1.10
2023-03-26T23:56:27.751Z,1.08
2023-03-26T23:58:57.748Z,1.00
